Time;durP1;ratioP1;P1;durP2;ratioP2;P2;SDS_P1;SDS_P2;PMS_P1;PMS_P2;Temp;Humidity;BMP_temperature;BMP_pressure;BME280_temperature;BME280_humidity;BME280_pressure;Samples;Min_cycle;Max_cycle;Signal;HPM_P1;HPM_P2
2023/02/17 00:01:32;;;;;;;;;15.50;12.50;;;;;13.92;67.74;102186.66;4862513;29;45361;-83
2023/02/17 00:03:58;;;;;;;;;13.50;13.25;;;;;13.85;67.70;102170.69;4861599;29;46347;-83
2023/02/17 00:06:27;;;;;;;;;10.00;8.00;;;;;13.81;68.09;102165.41;4863920;29;46195;-83
2023/02/17 00:08:53;;;;;;;;;12.00;12.00;;;;;13.83;68.33;102171.63;4856933;29;45381;-83
2023/02/17 00:11:19;;;;;;;;;11.75;10.50;;;;;13.85;68.18;102184.09;4864704;29;45335;-83
2023/02/17 00:13:45;;;;;;;;;11.75;11.25;;;;;13.76;68.11;102168.19;4862073;29;45348;-83
2023/02/17 00:16:16;;;;;;;;;16.00;15.50;;;;;13.83;68.22;102183.25;4855343;29;45471;-83
2023/02/17 00:18:41;;;;;;;;;11.75;11.25;;;;;13.93;68.27;102185.72;4855631;29;45298;-83
2023/02/17 00:21:27;;;;;;;;;13.75;11.75;;;;;13.96;68.41;102183.84;4864353;29;45342;-83
2023/02/17 00:23:53;;;;;;;;;13.00;11.00;;;;;13.88;68.38;102173.28;4862567;29;45429;-83
2023/02/17 00:26:20;;;;;;;;;13.00;11.00;;;;;13.87;68.32;102171.50;4862619;29;45285;-83
2023/02/17 00:28:46;;;;;;;;;15.00;10.50;;;;;13.96;68.51;102182.97;4861132;29;45452;-83
2023/02/17 00:31:16;;;;;;;;;8.00;8.00;;;;;13.96;68.40;102182.97;4864307;29;45387;-83
2023/02/17 00:33:41;;;;;;;;;13.50;11.50;;;;;13.99;68.49;102188.25;4861963;29;45430;-83
2023/02/17 00:36:11;;;;;;;;;16.00;12.75;;;;;13.96;68.65;102180.28;4876922;29;47175;-83
2023/02/17 00:38:37;;;;;;;;;10.75;10.25;;;;;13.88;68.75;102170.59;4860293;29;46345;-83
2023/02/17 00:41:02;;;;;;;;;13.00;11.75;;;;;13.88;68.74;102169.69;4866147;29;45383;-83
2023/02/17 00:43:28;;;;;;;;;14.25;14.00;;;;;13.86;68.86;102163.50;4865970;29;45505;-83
2023/02/17 00:45:54;;;;;;;;;13.25;12.00;;;;;13.89;68.90;102166.97;4867114;29;45409;-83
2023/02/17 00:48:19;;;;;;;;;9.75;8.75;;;;;13.91;69.06;102175.00;4865978;29;45234;-83
2023/02/17 00:50:45;;;;;;;;;10.50;10.00;;;;;13.86;69.21;102152.75;4871975;29;45273;-83
2023/02/17 00:53:10;;;;;;;;;12.25;12.25;;;;;13.75;69.57;102154.81;4880172;29;45595;-83
2023/02/17 00:55:36;;;;;;;;;14.75;14.00;;;;;13.82;69.37;102164.50;4866431;29;45593;-83
2023/02/17 00:58:01;;;;;;;;;11.00;11.00;;;;;13.87;69.49;102165.28;4855800;29;45217;-84
2023/02/17 01:00:26;;;;;;;;;17.50;13.50;;;;;13.82;69.81;102153.75;4874284;29;45296;-84
2023/02/17 01:02:52;;;;;;;;;17.50;12.75;;;;;13.86;69.64;102163.50;4865342;29;45206;-83
2023/02/17 01:05:17;;;;;;;;;11.50;11.00;;;;;13.88;69.64;102172.38;4858726;29;47468;-83
2023/02/17 01:07:43;;;;;;;;;10.25;9.00;;;;;13.72;69.60;102145.03;4874019;29;45558;-84
2023/02/17 01:10:08;;;;;;;;;11.00;11.00;;;;;13.81;70.16;102160.03;4861813;29;45582;-83
2023/02/17 01:12:34;;;;;;;;;11.50;11.00;;;;;13.80;69.85;102152.91;4863457;29;46232;-83
2023/02/17 01:15:00;;;;;;;;;11.00;11.00;;;;;13.88;70.03;102167.94;4865617;29;47658;-83
2023/02/17 01:17:25;;;;;;;;;10.00;9.50;;;;;13.83;70.31;102160.88;4863517;29;45452;-83
2023/02/17 01:19:51;;;;;;;;;11.75;10.00;;;;;13.87;69.99;102166.16;4866010;29;45297;-83
2023/02/17 01:22:16;;;;;;;;;16.50;15.75;;;;;13.81;70.14;102162.72;4868167;29;45444;-83
2023/02/17 01:24:41;;;;;;;;;12.75;11.50;;;;;13.68;70.38;102136.19;4855654;29;48109;-83
2023/02/17 01:27:07;;;;;;;;;14.25;13.50;;;;;13.85;70.18;102162.63;4862124;29;45240;-83
2023/02/17 01:29:32;;;;;;;;;12.00;12.00;;;;;13.69;70.53;102131.69;4859330;29;45476;-83
2023/02/17 01:31:57;;;;;;;;;12.75;10.00;;;;;13.77;70.73;102151.19;4860554;29;45393;-83
2023/02/17 01:34:23;;;;;;;;;11.25;10.00;;;;;13.74;70.90;102153.94;4860264;29;47016;-83
2023/02/17 01:36:48;;;;;;;;;12.00;12.00;;;;;13.57;70.63;102126.63;4862277;29;45394;-83
2023/02/17 01:39:14;;;;;;;;;10.25;9.50;;;;;13.60;71.01;102134.56;4868190;29;45367;-83
2023/02/17 01:41:40;;;;;;;;;12.50;11.50;;;;;13.76;71.00;102160.13;4869804;29;45489;-83
2023/02/17 01:44:12;;;;;;;;;13.25;13.00;;;;;13.75;71.21;102155.72;4865085;29;45307;-83
2023/02/17 01:46:40;;;;;;;;;9.75;9.75;;;;;13.75;71.48;102157.50;4866713;29;45737;-83
2023/02/17 01:49:38;;;;;;;;;12.25;10.50;;;;;13.73;71.02;102162.88;4854809;29;45360;-84
2023/02/17 01:52:18;;;;;;;;;9.75;9.00;;;;;13.74;71.17;102150.38;4872599;29;45520;-83
2023/02/17 01:54:54;;;;;;;;;12.00;10.25;;;;;13.75;71.25;102149.44;4863845;29;47341;-83
2023/02/17 01:57:23;;;;;;;;;10.25;10.00;;;;;13.77;71.24;102153.88;4854039;29;46127;-83
2023/02/17 01:59:49;;;;;;;;;13.50;12.00;;;;;13.62;71.54;102124.72;4875404;29;45285;-84
2023/02/17 02:02:14;;;;;;;;;12.50;12.50;;;;;13.60;71.19;102123.84;4864712;29;45408;-83
2023/02/17 02:04:44;;;;;;;;;14.75;11.75;;;;;13.72;71.33;102147.72;4855354;29;45346;-83
2023/02/17 02:07:16;;;;;;;;;12.25;10.00;;;;;13.62;71.71;102138.13;4855425;29;45584;-84
2023/02/17 02:09:55;;;;;;;;;13.00;11.00;;;;;13.67;71.61;102144.28;4861265;29;45357;-83
2023/02/17 02:12:29;;;;;;;;;13.75;11.75;;;;;13.75;71.86;102155.72;4865644;29;45560;-83
2023/02/17 02:14:59;;;;;;;;;11.75;10.50;;;;;13.66;71.58;102142.50;4856833;29;47715;-83
2023/02/17 02:17:37;;;;;;;;;11.00;10.75;;;;;13.76;71.83;102156.59;4876954;29;45811;-83
2023/02/17 02:20:20;;;;;;;;;12.50;12.00;;;;;13.77;71.95;102147.63;4851587;29;45373;-83
2023/02/17 02:22:58;;;;;;;;;16.00;13.75;;;;;13.76;71.94;102148.53;4860228;29;45402;-83
2023/02/17 02:25:35;;;;;;;;;15.75;15.25;;;;;13.68;71.94;102148.69;4861317;29;45334;-83
2023/02/17 02:28:40;;;;;;;;;14.50;11.25;;;;;13.76;71.98;102151.22;4864303;29;45330;-84
2023/02/17 02:31:17;;;;;;;;;19.00;15.75;;;;;13.74;72.27;102150.38;4860476;29;45549;-84
2023/02/17 02:33:50;;;;;;;;;14.00;14.00;;;;;13.70;71.92;102139.72;4861268;29;45435;-83
2023/02/17 02:36:24;;;;;;;;;15.75;13.75;;;;;13.76;72.07;102151.22;4865375;29;46177;-83
2023/02/17 02:39:03;;;;;;;;;13.00;12.00;;;;;13.67;72.41;102139.78;4862723;29;45777;-83
2023/02/17 02:41:36;;;;;;;;;16.75;14.50;;;;;13.58;72.20;102128.38;4858406;29;45443;-83
2023/02/17 02:44:11;;;;;;;;;16.25;14.75;;;;;13.74;72.24;102139.66;4864579;29;45990;-83
2023/02/17 02:46:37;;;;;;;;;12.25;10.75;;;;;13.60;72.68;102116.69;4875264;29;47381;-83
2023/02/17 02:49:04;;;;;;;;;15.25;13.75;;;;;13.56;72.85;102106.94;4858654;29;45514;-83
2023/02/17 02:51:32;;;;;;;;;7.25;7.25;;;;;13.74;72.72;102136.97;4861876;29;45383;-83
2023/02/17 02:54:21;;;;;;;;;15.00;14.75;;;;;13.60;72.32;102105.97;4857956;29;45335;-83
2023/02/17 02:56:50;;;;;;;;;10.50;10.25;;;;;13.73;72.64;102140.53;4864023;29;45324;-84
2023/02/17 02:59:18;;;;;;;;;14.75;13.50;;;;;13.70;72.86;102133.47;4860786;29;45682;-83
2023/02/17 03:02:07;;;;;;;;;16.00;14.75;;;;;13.59;73.05;102116.72;4863688;29;45484;-83
2023/02/17 03:04:42;;;;;;;;;15.75;13.75;;;;;13.58;72.94;102115.84;4857016;29;45211;-83
2023/02/17 03:07:20;;;;;;;;;14.00;13.00;;;;;13.57;72.86;102111.41;4861221;29;45473;-83
2023/02/17 03:09:55;;;;;;;;;17.00;14.75;;;;;13.71;73.10;102136.13;4859714;29;45500;-83
2023/02/17 03:12:21;;;;;;;;;16.50;15.25;;;;;13.60;73.08;102116.69;4859710;29;45443;-83
2023/02/17 03:14:49;;;;;;;;;11.00;11.00;;;;;13.70;73.30;102136.16;4874586;29;46370;-83
2023/02/17 03:17:15;;;;;;;;;11.75;11.75;;;;;13.56;73.46;102109.63;4862117;29;45679;-83
2023/02/17 03:19:41;;;;;;;;;12.50;11.00;;;;;13.65;73.57;102119.28;4853446;29;45374;-83
2023/02/17 03:22:11;;;;;;;;;15.00;13.75;;;;;13.62;73.34;102127.41;4862989;29;45296;-83
2023/02/17 03:24:36;;;;;;;;;14.50;12.25;;;;;13.49;73.25;102098.16;4861571;29;45985;-83
2023/02/17 03:27:02;;;;;;;;;14.25;10.25;;;;;13.60;73.38;102113.09;4855577;29;45882;-83
2023/02/17 03:29:27;;;;;;;;;11.50;11.50;;;;;13.63;73.59;102118.41;4854909;29;45334;-83
2023/02/17 03:31:52;;;;;;;;;16.50;13.50;;;;;13.53;73.06;102093.59;4859787;29;45637;-83
2023/02/17 03:34:18;;;;;;;;;15.50;15.00;;;;;13.70;73.48;102120.94;4854587;29;45574;-83
2023/02/17 03:36:43;;;;;;;;;8.75;8.75;;;;;13.60;73.47;102105.97;4863310;29;45459;-83
2023/02/17 03:39:08;;;;;;;;;12.25;11.50;;;;;13.68;73.31;102103.97;4857521;29;45963;-83
2023/02/17 03:41:34;;;;;;;;;12.00;11.00;;;;;13.68;73.13;102103.06;4860959;29;45344;-83
2023/02/17 03:43:59;;;;;;;;;12.50;10.50;;;;;13.74;73.56;102112.81;4874118;29;45424;-83
2023/02/17 03:46:25;;;;;;;;;13.25;11.00;;;;;13.60;73.58;102081.81;4869557;29;46985;-83
2023/02/17 03:48:50;;;;;;;;;13.75;12.00;;;;;13.69;73.91;102111.09;4859612;29;45276;-83
2023/02/17 03:51:20;;;;;;;;;11.00;11.00;;;;;13.75;73.70;102120.81;4879073;29;45272;-83
2023/02/17 03:53:46;;;;;;;;;9.50;9.00;;;;;13.76;73.79;102130.63;4875384;29;45402;-83
2023/02/17 03:56:13;;;;;;;;;12.00;10.50;;;;;13.74;73.98;102128.91;4854874;29;47196;-83
2023/02/17 03:58:39;;;;;;;;;11.00;10.00;;;;;13.59;73.88;102106.88;4864280;29;45422;-83
2023/02/17 04:01:05;;;;;;;;;10.75;10.25;;;;;13.59;73.84;102111.38;4854567;29;45328;-83
2023/02/17 04:03:31;;;;;;;;;9.00;9.00;;;;;13.77;73.78;102144.94;4861936;29;45652;-83
2023/02/17 04:05:56;;;;;;;;;10.00;10.00;;;;;13.77;73.72;102142.25;4858502;29;46171;-83
2023/02/17 04:08:22;;;;;;;;;10.00;9.75;;;;;13.79;73.77;102143.09;4862233;29;45370;-84
2023/02/17 04:10:59;;;;;;;;;9.00;9.00;;;;;13.68;73.80;102129.91;4872033;29;45440;-84
2023/02/17 04:13:25;;;;;;;;;9.00;8.75;;;;;13.82;73.84;102156.44;4863207;29;45271;-83
2023/02/17 04:15:51;;;;;;;;;11.75;10.75;;;;;13.74;73.83;102139.66;4864592;29;45442;-83
2023/02/17 04:18:17;;;;;;;;;11.00;10.00;;;;;13.72;73.79;102137.00;4869035;29;45428;-83
2023/02/17 04:20:43;;;;;;;;;9.75;9.00;;;;;13.66;73.93;102127.25;4863913;29;45333;-83
2023/02/17 04:23:09;;;;;;;;;14.00;12.75;;;;;13.70;74.14;102133.47;4866484;29;45331;-83
2023/02/17 04:25:36;;;;;;;;;14.75;10.50;;;;;13.78;73.54;102149.38;4854354;29;45450;-83
2023/02/17 04:28:04;;;;;;;;;9.75;9.75;;;;;13.84;73.88;102159.97;4856855;29;45444;-83
2023/02/17 04:30:30;;;;;;;;;11.00;10.25;;;;;13.86;73.91;102160.81;4863979;29;45396;-83
2023/02/17 04:32:55;;;;;;;;;11.00;9.00;;;;;13.80;73.91;102153.81;4866581;29;45512;-83
2023/02/17 04:35:21;;;;;;;;;10.25;10.00;;;;;13.70;74.61;102146.88;4862702;29;47571;-84
2023/02/17 04:37:46;;;;;;;;;11.00;11.00;;;;;13.77;74.13;102153.00;4881545;29;45401;-84
2023/02/17 04:40:12;;;;;;;;;9.75;9.75;;;;;13.80;74.15;102155.56;4878667;29;45331;-83
2023/02/17 04:42:37;;;;;;;;;10.00;8.00;;;;;13.84;74.31;102170.72;4866417;29;45322;-83
2023/02/17 04:45:06;;;;;;;;;15.00;11.50;;;;;13.83;74.32;102167.16;4858340;29;47578;-83
2023/02/17 04:47:32;;;;;;;;;12.25;10.25;;;;;13.75;74.45;102157.50;4865510;29;45289;-83
2023/02/17 04:49:57;;;;;;;;;11.00;9.25;;;;;13.75;74.43;102157.50;4865579;29;45337;-83
2023/02/17 04:52:23;;;;;;;;;11.25;9.75;;;;;13.72;74.79;102150.41;4857870;29;45463;-83
2023/02/17 04:54:48;;;;;;;;;11.25;11.25;;;;;13.65;74.63;102151.47;4862411;29;45423;-83
2023/02/17 04:57:13;;;;;;;;;10.00;8.75;;;;;13.69;74.62;102150.47;4865465;29;45387;-84
2023/02/17 04:59:39;;;;;;;;;7.50;6.25;;;;;13.64;74.71;102145.22;4857525;29;45457;-83
2023/02/17 05:02:04;;;;;;;;;10.75;10.00;;;;;13.67;74.81;102157.69;4860043;29;46911;-83
2023/02/17 05:04:30;;;;;;;;;10.50;10.00;;;;;13.71;75.13;102160.28;4864556;29;45344;-83
2023/02/17 05:06:55;;;;;;;;;11.50;10.25;;;;;13.79;75.32;102178.00;4859608;29;45423;-83
2023/02/17 05:09:21;;;;;;;;;9.75;9.75;;;;;13.72;75.54;102169.19;4858175;29;45464;-83
2023/02/17 05:11:46;;;;;;;;;14.00;11.50;;;;;13.64;75.20;102158.63;4877513;29;45388;-83
2023/02/17 05:14:11;;;;;;;;;11.50;11.50;;;;;13.76;75.23;102178.06;4878074;29;46891;-83
2023/02/17 05:16:37;;;;;;;;;15.00;14.00;;;;;13.70;75.55;102177.28;4858516;29;45450;-84
2023/02/17 05:19:02;;;;;;;;;13.25;12.75;;;;;13.61;75.51;102157.81;4862059;29;45380;-84
2023/02/17 05:21:27;;;;;;;;;15.00;14.50;;;;;13.69;75.45;102175.50;4866190;29;45259;-83
2023/02/17 05:23:53;;;;;;;;;13.00;12.25;;;;;13.69;75.63;102167.44;4865211;29;45503;-83
2023/02/17 05:26:18;;;;;;;;;11.00;10.50;;;;;13.59;75.73;102163.22;4857626;29;45443;-83
2023/02/17 05:28:44;;;;;;;;;9.25;9.25;;;;;13.73;75.60;102178.13;4863825;29;45434;-83
2023/02/17 05:31:09;;;;;;;;;10.75;10.75;;;;;13.78;75.62;102190.53;4860064;29;45407;-83
2023/02/17 05:33:35;;;;;;;;;9.00;9.00;;;;;13.64;75.75;102160.44;4864230;29;48075;-83
2023/02/17 05:36:06;;;;;;;;;9.50;9.25;;;;;13.69;75.59;102174.63;4862763;29;45699;-83
2023/02/17 05:38:34;;;;;;;;;15.00;13.00;;;;;13.66;75.53;102166.63;4861732;29;45551;-83
2023/02/17 05:40:59;;;;;;;;;11.50;9.50;;;;;13.57;75.90;102145.41;4862006;29;45561;-84
2023/02/17 05:43:25;;;;;;;;;9.25;9.25;;;;;13.77;76.05;102187.88;4878067;29;47013;-83
2023/02/17 05:45:50;;;;;;;;;9.00;9.00;;;;;13.78;75.97;102190.53;4876757;29;45291;-83
2023/02/17 05:48:16;;;;;;;;;12.00;10.00;;;;;13.67;75.88;102176.47;4878210;29;45389;-83
2023/02/17 05:50:41;;;;;;;;;7.00;7.00;;;;;13.68;76.28;102170.16;4851873;29;46001;-84
2023/02/17 05:53:07;;;;;;;;;6.50;5.50;;;;;13.59;75.87;102152.47;4860765;29;46424;-84
2023/02/17 05:55:32;;;;;;;;;10.00;10.00;;;;;13.68;75.79;102170.16;4879337;29;46136;-84
2023/02/17 05:57:57;;;;;;;;;8.25;8.25;;;;;13.71;75.90;102176.38;4871197;29;45258;-83
2023/02/17 06:00:23;;;;;;;;;10.50;9.50;;;;;13.77;76.04;102193.25;4856730;29;45247;-84
2023/02/17 06:02:48;;;;;;;;;10.50;8.75;;;;;13.69;75.91;102174.63;4860912;29;48155;-84
2023/02/17 06:05:14;;;;;;;;;9.50;9.00;;;;;13.74;75.86;102180.78;4855229;29;45329;-83
2023/02/17 06:07:40;;;;;;;;;11.25;10.00;;;;;13.74;75.49;102177.22;4870336;29;45352;-83
2023/02/17 06:10:06;;;;;;;;;6.50;6.00;;;;;13.78;75.20;102184.25;4859632;29;45655;-83
2023/02/17 06:12:31;;;;;;;;;10.25;10.25;;;;;13.86;75.33;102190.34;4877723;29;48474;-83
2023/02/17 06:14:56;;;;;;;;;9.00;7.00;;;;;13.85;75.53;102193.97;4859616;29;45476;-83
2023/02/17 06:17:22;;;;;;;;;8.00;7.00;;;;;13.80;75.31;102186.00;4858370;29;45316;-86
2023/02/17 06:19:47;;;;;;;;;9.00;8.00;;;;;13.84;75.60;102201.09;4864176;29;45332;-86
2023/02/17 06:22:12;;;;;;;;;7.75;7.75;;;;;13.89;75.27;102203.69;4855538;29;48339;-86
2023/02/17 06:24:38;;;;;;;;;7.75;6.50;;;;;13.73;75.53;102180.81;4860063;29;45324;-86
2023/02/17 06:27:03;;;;;;;;;9.50;8.50;;;;;13.89;75.96;102217.13;4861571;29;45433;-86
2023/02/17 06:29:28;;;;;;;;;9.50;9.50;;;;;13.83;75.62;102209.19;4858916;29;45399;-86
2023/02/17 06:31:54;;;;;;;;;9.25;8.25;;;;;13.79;75.60;102203.00;4863774;29;47189;-86
2023/02/17 06:34:19;;;;;;;;;10.00;10.00;;;;;13.76;75.81;102202.19;4866911;29;45264;-86
2023/02/17 06:36:44;;;;;;;;;8.50;7.50;;;;;13.76;76.14;102212.94;4825341;29;1166303;-85
2023/02/17 06:39:10;;;;;;;;;9.00;9.00;;;;;13.79;75.74;102223.59;4871843;29;45759;-86
2023/02/17 06:41:35;;;;;;;;;8.50;8.50;;;;;13.88;76.00;102240.41;4863682;29;46075;-88
2023/02/17 06:44:01;;;;;;;;;10.00;9.75;;;;;13.89;76.23;102243.97;4863139;29;45363;-88
2023/02/17 06:46:26;;;;;;;;;7.00;7.00;;;;;13.76;76.05;102224.53;4876070;29;45207;-88
2023/02/17 06:48:52;;;;;;;;;7.50;7.25;;;;;13.84;75.97;102238.69;4855461;29;45436;-88
2023/02/17 06:51:18;;;;;;;;;8.50;8.50;;;;;13.69;76.28;102220.25;4878497;29;47789;-88
2023/02/17 06:53:43;;;;;;;;;7.25;7.25;;;;;13.90;76.24;102257.34;4871414;29;45334;-86
2023/02/17 06:56:09;;;;;;;;;9.50;9.50;;;;;13.83;75.99;102238.72;4862897;29;45364;-88
2023/02/17 06:58:36;;;;;;;;;4.25;3.25;;;;;13.78;75.63;102243.31;4855266;29;45504;-87
2023/02/17 07:01:02;;;;;;;;;10.00;8.75;;;;;13.80;75.96;102238.78;4872252;29;47128;-87
2023/02/17 07:03:28;;;;;;;;;8.75;8.00;;;;;13.82;75.93;102253.94;4880057;29;45450;-88
2023/02/17 07:05:57;;;;;;;;;9.00;8.00;;;;;13.94;75.95;102271.59;4858972;29;45416;-88
2023/02/17 07:08:23;;;;;;;;;9.00;9.00;;;;;13.69;75.62;102229.16;4859347;29;45563;-88
2023/02/17 07:10:48;;;;;;;;;10.50;10.00;;;;;13.85;76.11;102261.94;4873715;29;47320;-88
2023/02/17 07:13:14;;;;;;;;;8.75;8.75;;;;;13.57;75.65;102210.66;4863353;29;45437;-87
2023/02/17 07:15:39;;;;;;;;;11.00;9.00;;;;;13.98;76.06;102283.13;4858135;29;45394;-88
2023/02/17 07:18:05;;;;;;;;;7.00;6.50;;;;;13.75;76.10;102236.22;4871731;29;45339;-88
2023/02/17 07:20:31;;;;;;;;;7.00;7.00;;;;;13.84;76.08;102257.47;4876402;29;46802;-87
2023/02/17 07:22:57;;;;;;;;;7.50;5.00;;;;;13.88;75.91;102258.28;4862555;29;45471;-88
2023/02/17 07:25:23;;;;;;;;;13.00;11.50;;;;;14.02;76.15;102290.22;4860153;29;45484;-88
2023/02/17 07:27:48;;;;;;;;;8.25;8.25;;;;;14.03;75.96;102286.59;4865829;29;45439;-88
2023/02/17 07:30:14;;;;;;;;;9.25;5.75;;;;;13.94;76.03;102265.34;4863662;29;47490;-88
2023/02/17 07:32:39;;;;;;;;;8.25;6.25;;;;;13.77;75.98;102247.78;4861772;29;45425;-88
2023/02/17 07:35:05;;;;;;;;;6.25;6.25;;;;;13.74;76.14;102238.94;4858421;29;45600;-88
2023/02/17 07:37:30;;;;;;;;;6.75;6.75;;;;;13.76;76.33;102251.38;4861183;29;45682;-88
2023/02/17 07:39:56;;;;;;;;;4.25;4.25;;;;;13.80;76.23;102255.78;4862861;29;48100;-88
2023/02/17 07:42:21;;;;;;;;;8.00;8.00;;;;;13.93;76.54;102283.22;4878284;29;45412;-88
2023/02/17 07:44:47;;;;;;;;;3.00;3.00;;;;;13.96;76.45;102284.97;4867121;29;45385;-88
2023/02/17 07:47:13;;;;;;;;;6.00;5.00;;;;;13.89;76.34;102279.72;4851881;29;45362;-87
2023/02/17 07:49:38;;;;;;;;;5.75;5.00;;;;;13.79;76.29;102256.69;4854756;29;45402;-88
2023/02/17 07:52:04;;;;;;;;;5.00;5.00;;;;;13.84;76.27;102268.22;4863019;29;45483;-88
2023/02/17 07:54:29;;;;;;;;;2.25;2.25;;;;;13.96;76.57;102290.34;4875197;29;45451;-86
2023/02/17 07:56:58;;;;;;;;;6.75;5.75;;;;;13.95;76.57;102291.25;4860918;29;45355;-88
2023/02/17 07:59:23;;;;;;;;;4.50;4.50;;;;;13.66;76.69;102249.81;4856963;29;45417;-86
2023/02/17 08:01:49;;;;;;;;;7.00;6.00;;;;;13.86;76.58;102284.28;4854082;29;45455;-86
2023/02/17 08:04:15;;;;;;;;;4.75;4.50;;;;;13.97;76.70;102293.00;4859735;29;45442;-86
2023/02/17 08:06:40;;;;;;;;;5.75;5.75;;;;;13.70;76.67;102249.72;4861206;29;45474;-83
2023/02/17 08:14:37;;;;;;;;;36.25;33.50;;;;;14.02;76.69;102304.50;4859639;29;45321;-85
2023/02/17 08:17:03;;;;;;;;;36.00;29.75;;;;;13.94;76.92;102292.19;4851914;29;45334;-83
2023/02/17 08:19:28;;;;;;;;;47.50;39.75;;;;;13.99;77.16;102307.25;4853248;29;47369;-84
2023/02/17 08:21:54;;;;;;;;;49.75;42.50;;;;;13.97;76.96;102305.53;4857821;29;45441;-85
2023/02/17 08:24:20;;;;;;;;;42.50;35.00;;;;;14.03;77.03;102313.44;4861833;29;45307;-84
2023/02/17 08:26:46;;;;;;;;;42.75;35.50;;;;;14.03;76.80;102308.06;4860615;29;45661;-84
2023/02/17 08:29:11;;;;;;;;;34.25;32.25;;;;;14.04;76.81;102317.91;4854169;29;45666;-86
2023/02/17 08:31:37;;;;;;;;;30.50;28.75;;;;;13.90;76.79;102291.38;4864965;29;45528;-85
2023/02/17 08:34:05;;;;;;;;;25.50;21.75;;;;;13.88;77.13;102294.09;4861226;29;45683;-86
2023/02/17 08:36:32;;;;;;;;;20.00;17.50;;;;;14.06;77.18;102319.63;4861294;29;45479;-85
2023/02/17 08:38:59;;;;;;;;;19.25;15.50;;;;;13.98;77.08;102308.19;4857208;29;47267;-86
2023/02/17 08:41:33;;;;;;;;;14.00;10.75;;;;;14.05;77.26;102320.56;4857654;29;45340;-85
2023/02/17 08:44:00;;;;;;;;;12.75;12.75;;;;;13.93;77.08;102293.97;4857039;29;45386;-85
2023/02/17 08:46:27;;;;;;;;;6.50;6.50;;;;;13.85;77.22;102278.03;4865214;29;45409;-86
2023/02/17 08:48:52;;;;;;;;;5.75;5.75;;;;;13.80;77.25;102271.88;4856249;29;45424;-86
2023/02/17 08:51:22;;;;;;;;;6.00;6.00;;;;;13.85;77.56;102286.09;4863110;29;45301;-85
2023/02/17 08:53:49;;;;;;;;;7.75;7.75;;;;;14.09;77.46;102327.63;4860975;29;45212;-85
2023/02/17 08:56:15;;;;;;;;;6.50;5.00;;;;;13.90;77.30;102291.38;4854718;29;45425;-85
2023/02/17 08:58:41;;;;;;;;;7.00;7.00;;;;;13.75;77.44;102264.84;4856845;29;45602;-86
2023/02/17 09:01:06;;;;;;;;;6.50;5.25;;;;;13.86;77.19;102284.28;4862239;29;45280;-86
2023/02/17 09:03:33;;;;;;;;;5.75;5.25;;;;;13.97;77.46;102301.03;4863658;29;46041;-86
2023/02/17 09:05:59;;;;;;;;;5.75;4.75;;;;;13.89;77.52;102289.59;4854176;29;45322;-86
2023/02/17 09:08:24;;;;;;;;;3.75;3.75;;;;;13.95;77.31;102305.56;4860625;29;46136;-86
2023/02/17 09:10:50;;;;;;;;;7.50;5.00;;;;;13.71;77.63;102259.56;4865504;29;45582;-86
2023/02/17 09:13:16;;;;;;;;;4.00;4.00;;;;;14.06;77.66;102319.63;4857502;29;45300;-84
2023/02/17 09:15:41;;;;;;;;;3.25;3.25;;;;;14.06;77.84;102322.31;4855159;29;45614;-87
2023/02/17 09:18:07;;;;;;;;;4.00;2.75;;;;;13.98;77.47;102313.56;4873917;29;46355;-88
2023/02/17 09:20:32;;;;;;;;;4.50;4.50;;;;;13.72;77.58;102265.81;4855539;29;45213;-87
2023/02/17 09:22:58;;;;;;;;;3.00;3.00;;;;;13.75;77.72;102267.53;4860314;29;45293;-85
2023/02/17 09:25:24;;;;;;;;;4.75;4.00;;;;;13.95;77.52;102299.28;4878110;29;45425;-85
2023/02/17 09:27:49;;;;;;;;;4.00;4.00;;;;;14.24;77.83;102341.63;4881078;29;47222;-86
2023/02/17 09:30:15;;;;;;;;;3.75;3.75;;;;;14.24;77.69;102345.19;4863402;29;45642;-85
2023/02/17 09:32:41;;;;;;;;;5.50;4.00;;;;;14.08;77.60;102311.53;4861518;29;45602;-85
2023/02/17 09:35:09;;;;;;;;;3.75;3.75;;;;;14.31;77.58;102337.88;4865519;29;46254;-85
2023/02/17 09:37:35;;;;;;;;;4.00;3.25;;;;;14.13;77.31;102309.63;4866156;29;47129;-85
2023/02/17 09:40:00;;;;;;;;;6.00;6.00;;;;;14.12;77.70;102302.50;4860915;29;45272;-85
2023/02/17 09:42:27;;;;;;;;;4.00;4.00;;;;;14.05;77.34;102282.09;4871177;29;45971;-80
2023/02/17 09:45:10;;;;;;;;;8.75;7.50;;;;;14.37;77.47;102336.88;4853730;29;45403;-83
2023/02/17 09:47:44;;;;;;;;;4.00;4.00;;;;;14.45;77.48;102346.53;4858015;29;48493;-83
2023/02/17 09:50:17;;;;;;;;;4.75;3.50;;;;;14.46;77.51;102345.59;4860218;29;45962;-83
2023/02/17 09:52:55;;;;;;;;;4.75;4.75;;;;;14.48;77.36;102344.69;4860853;29;45386;-83
2023/02/17 09:55:51;;;;;;;;;3.00;3.00;;;;;14.50;77.46;102337.47;4853493;29;45478;-83
2023/02/17 09:58:30;;;;;;;;;4.75;4.75;;;;;14.46;77.40;102328.59;4855734;29;45405;-83
2023/02/17 10:00:57;;;;;;;;;3.50;3.50;;;;;14.46;77.09;102321.41;4861950;29;45610;-84
2023/02/17 10:03:45;;;;;;;;;3.50;3.00;;;;;14.54;76.94;102325.75;4861735;29;45412;-85
2023/02/17 10:06:43;;;;;;;;;4.25;4.00;;;;;14.64;77.00;102346.13;4849702;29;46090;-83
2023/02/17 10:09:20;;;;;;;;;3.00;3.00;;;;;14.60;76.90;102333.66;4879405;29;47800;-85
2023/02/17 10:11:59;;;;;;;;;4.00;4.00;;;;;14.68;76.84;102345.13;4875646;29;45529;-84
2023/02/17 10:14:58;;;;;;;;;4.25;2.75;;;;;14.72;76.73;102346.84;4854171;29;45312;-86
2023/02/17 10:17:36;;;;;;;;;3.50;3.00;;;;;14.75;76.76;102360.19;4853921;29;45326;-80
2023/02/17 10:20:04;;;;;;;;;5.25;4.50;;;;;14.78;76.82;102352.06;4864983;29;45413;-82
2023/02/17 10:22:31;;;;;;;;;3.00;3.00;;;;;14.65;76.64;102331.78;4861073;29;45272;-82
2023/02/17 10:24:57;;;;;;;;;3.25;3.25;;;;;14.73;76.29;102348.56;4857300;29;45204;-82
2023/02/17 10:27:53;;;;;;;;;2.50;2.50;;;;;14.79;76.27;102356.50;4862829;29;45434;-82
2023/02/17 10:30:32;;;;;;;;;2.00;2.00;;;;;14.82;76.40;102351.06;4849971;29;46253;-82
2023/02/17 10:33:13;;;;;;;;;1.00;1.00;;;;;14.75;76.48;102348.53;4859775;29;45440;-82
2023/02/17 10:35:49;;;;;;;;;1.00;1.00;;;;;14.80;76.08;102363.66;4861037;29;45331;-82
2023/02/17 10:38:25;;;;;;;;;3.25;3.25;;;;;14.71;75.89;102339.69;4859617;29;45552;-82
2023/02/17 10:40:55;;;;;;;;;1.75;1.75;;;;;14.74;75.98;102352.16;4853939;29;46476;-82
2023/02/17 10:43:26;;;;;;;;;3.00;3.00;;;;;14.81;75.98;102359.16;4861546;29;45228;-82
2023/02/17 10:45:52;;;;;;;;;3.50;2.75;;;;;14.73;75.99;102339.63;4859800;29;45575;-82
2023/02/17 10:48:42;;;;;;;;;3.50;3.00;;;;;14.74;76.13;102353.03;4859445;29;45409;-82
2023/02/17 10:51:13;;;;;;;;;3.25;2.00;;;;;14.72;76.16;102352.22;4877760;29;47453;-82
2023/02/17 10:53:39;;;;;;;;;1.00;1.00;;;;;14.63;75.95;102313.00;4853098;29;45461;-80
2023/02/17 10:56:08;;;;;;;;;1.75;1.75;;;;;14.89;75.70;102361.66;4858338;29;45296;-82
2023/02/17 10:58:39;;;;;;;;;3.00;3.00;;;;;14.88;75.84;102360.75;4863598;29;45457;-83
2023/02/17 11:01:06;;;;;;;;;1.50;1.50;;;;;14.73;75.65;102343.19;4851845;29;45466;-83
2023/02/17 11:03:32;;;;;;;;;2.75;2.75;;;;;14.87;75.75;102350.03;4858265;29;45546;-83
2023/02/17 11:06:04;;;;;;;;;1.75;1.75;;;;;14.77;75.59;102338.66;4873863;29;45576;-83
2023/02/17 11:08:34;;;;;;;;;2.50;2.00;;;;;14.94;75.64;102363.31;4864598;29;45615;-82
2023/02/17 11:11:03;;;;;;;;;3.25;3.00;;;;;14.97;75.34;102359.69;4866082;29;47269;-85
2023/02/17 11:13:39;;;;;;;;;3.00;3.00;;;;;14.91;75.52;102358.00;4856800;29;45331;-83
2023/02/17 11:16:05;;;;;;;;;2.50;1.25;;;;;14.97;75.47;102357.00;4877642;29;45563;-83
2023/02/17 11:18:34;;;;;;;;;4.00;3.00;;;;;14.99;75.41;102368.59;4858133;29;45277;-83
2023/02/17 11:21:05;;;;;;;;;3.25;3.00;;;;;14.99;75.40;102368.59;4857377;29;46245;-83
2023/02/17 11:23:31;;;;;;;;;5.50;3.25;;;;;14.94;75.55;102360.63;4860940;29;45456;-83
2023/02/17 11:26:06;;;;;;;;;3.00;2.50;;;;;14.92;75.43;102354.41;4860543;29;45840;-83
2023/02/17 11:28:32;;;;;;;;;3.50;3.25;;;;;14.94;75.28;102367.81;4853286;29;45285;-82